createdAt,value
2022-12-26T00:03:32.642Z,7.70
2022-12-26T00:32:57.498Z,8.00
2022-12-26T00:38:13.913Z,7.80
2022-12-26T00:40:43.546Z,7.80
2022-12-26T00:43:11.169Z,7.80
2022-12-26T00:51:09.357Z,7.70
2022-12-26T00:56:14.247Z,7.70
2022-12-26T01:17:32.408Z,8.10
2022-12-26T01:20:25.501Z,8.10
2022-12-26T01:23:01.488Z,8.10
2022-12-26T01:36:18.123Z,7.80
2022-12-26T01:38:46.056Z,7.80
2022-12-26T01:41:23.544Z,7.80
2022-12-26T01:43:58.554Z,7.70
2022-12-26T01:46:43.215Z,7.70
2022-12-26T01:49:19.385Z,7.60
2022-12-26T01:51:52.670Z,7.60
2022-12-26T01:54:38.418Z,7.70
2022-12-26T02:02:57.030Z,7.70
2022-12-26T02:05:35.915Z,7.90
2022-12-26T02:08:16.330Z,8.00
2022-12-26T02:10:50.427Z,8.00
2022-12-26T02:24:50.666Z,8.20
2022-12-26T02:33:46.799Z,8.20
2022-12-26T02:36:14.672Z,8.30
2022-12-26T02:47:14.475Z,8.20
2022-12-26T03:12:09.428Z,8.00
2022-12-26T03:44:54.509Z,8.60
2022-12-26T03:48:16.875Z,8.60
2022-12-26T03:54:25.061Z,8.60
2022-12-26T03:57:25.193Z,8.60
2022-12-26T04:00:25.084Z,8.60
2022-12-26T04:03:16.300Z,8.50
2022-12-26T04:06:06.454Z,8.60
2022-12-26T04:16:58.890Z,8.80
2022-12-26T04:19:47.821Z,9.10
2022-12-26T04:25:48.564Z,9.20
2022-12-26T04:28:37.768Z,9.00
2022-12-26T04:31:33.165Z,9.10
2022-12-26T04:34:24.367Z,9.00
2022-12-26T04:37:21.673Z,9.10
2022-12-26T04:47:37.892Z,9.60
2022-12-26T04:50:12.609Z,9.60
2022-12-26T04:52:59.053Z,9.50
2022-12-26T04:55:30.958Z,9.60
2022-12-26T04:57:58.486Z,9.40
2022-12-26T05:03:24.157Z,9.50
2022-12-26T05:06:11.061Z,9.40
2022-12-26T05:09:01.289Z,9.50
2022-12-26T05:11:32.168Z,9.60
2022-12-26T05:14:00.904Z,9.70
2022-12-26T05:17:07.404Z,9.50
2022-12-26T05:19:52.882Z,9.50
2022-12-26T05:22:40.061Z,9.60
2022-12-26T05:25:36.268Z,9.70
2022-12-26T05:28:22.810Z,9.70
2022-12-26T05:30:49.829Z,9.70
2022-12-26T05:33:35.975Z,9.80
2022-12-26T05:36:04.711Z,9.80
2022-12-26T05:38:32.710Z,9.90
2022-12-26T05:41:00.188Z,9.90
2022-12-26T05:43:28.536Z,10.00
2022-12-26T05:45:56.280Z,10.10
2022-12-26T05:48:23.249Z,10.30
2022-12-26T05:50:50.383Z,10.20
2022-12-26T05:53:17.386Z,10.10
2022-12-26T05:55:46.068Z,10.30
2022-12-26T05:58:13.005Z,10.20
2022-12-26T06:00:40.846Z,10.20
2022-12-26T06:03:07.873Z,10.20
2022-12-26T06:05:35.435Z,10.10
2022-12-26T06:08:04.089Z,10.20
2022-12-26T06:10:31.088Z,10.20
2022-12-26T06:12:59.930Z,10.30
2022-12-26T06:15:29.404Z,10.20
2022-12-26T06:17:57.323Z,10.30
2022-12-26T06:20:27.196Z,10.40
2022-12-26T06:22:57.482Z,10.40
2022-12-26T06:25:24.395Z,10.40
2022-12-26T06:27:51.297Z,10.20
2022-12-26T06:30:18.288Z,10.30
2022-12-26T06:32:45.527Z,10.20
2022-12-26T06:35:14.420Z,10.20
2022-12-26T06:37:41.855Z,10.20
2022-12-26T06:40:09.387Z,10.30
2022-12-26T06:42:36.339Z,10.30
2022-12-26T06:45:04.583Z,10.00
2022-12-26T06:47:35.403Z,10.10
2022-12-26T06:50:02.349Z,9.90
2022-12-26T06:52:29.431Z,9.90
2022-12-26T06:54:58.967Z,10.00
2022-12-26T06:57:27.067Z,9.90
2022-12-26T06:59:54.905Z,9.90
2022-12-26T07:10:30.675Z,10.00
2022-12-26T07:26:06.503Z,9.70
2022-12-26T07:31:09.283Z,9.60
2022-12-26T07:33:36.400Z,9.70
2022-12-26T07:36:11.286Z,9.80
2022-12-26T07:38:40.952Z,9.70
2022-12-26T07:41:27.820Z,9.60
2022-12-26T07:43:55.054Z,9.70
2022-12-26T07:46:22.366Z,9.70
2022-12-26T07:48:54.085Z,9.80
2022-12-26T07:51:25.716Z,9.80
2022-12-26T07:53:56.207Z,10.00
2022-12-26T07:56:31.627Z,10.10
2022-12-26T07:59:00.189Z,10.00
2022-12-26T08:01:27.572Z,10.10
2022-12-26T08:03:56.553Z,10.10
2022-12-26T08:06:27.575Z,10.20
2022-12-26T08:08:55.333Z,10.10
2022-12-26T08:11:24.571Z,10.30
2022-12-26T08:13:55.189Z,10.20
2022-12-26T08:16:22.657Z,10.20
2022-12-26T08:18:51.127Z,10.30
2022-12-26T08:21:18.569Z,10.30
2022-12-26T08:23:50.556Z,10.40
2022-12-26T08:26:22.983Z,10.60
2022-12-26T08:29:29.234Z,10.60
2022-12-26T08:32:22.144Z,10.50
2022-12-26T08:34:49.542Z,10.40
2022-12-26T08:37:18.006Z,10.20
2022-12-26T08:54:39.347Z,9.90
2022-12-26T09:00:56.269Z,9.80
2022-12-26T09:03:24.294Z,9.80
2022-12-26T09:06:17.608Z,9.80
2022-12-26T09:09:33.272Z,9.70
2022-12-26T09:16:38.019Z,10.00
2022-12-26T09:19:07.521Z,10.50
2022-12-26T09:21:34.462Z,10.60
2022-12-26T09:24:04.576Z,10.60
2022-12-26T09:30:21.182Z,11.00
2022-12-26T09:33:02.900Z,11.30
2022-12-26T09:35:30.390Z,11.20
2022-12-26T09:37:57.563Z,11.50
2022-12-26T09:40:56.308Z,11.70
2022-12-26T09:43:50.048Z,11.80
2022-12-26T09:46:48.216Z,11.90
2022-12-26T09:49:39.744Z,11.70
2022-12-26T10:08:11.855Z,12.00
2022-12-26T10:18:57.373Z,12.60
2022-12-26T10:21:53.960Z,12.70
2022-12-26T10:28:04.233Z,13.00
2022-12-26T10:30:41.668Z,13.30
2022-12-26T10:33:51.834Z,13.40
2022-12-26T11:03:56.010Z,12.00
2022-12-26T11:14:33.195Z,11.90
2022-12-26T11:21:26.500Z,11.90
2022-12-26T11:31:34.336Z,12.00
2022-12-26T11:34:07.196Z,12.10
2022-12-26T11:36:36.555Z,12.20
2022-12-26T11:43:01.499Z,12.30
2022-12-26T11:56:10.571Z,12.80
2022-12-26T12:01:44.793Z,12.70
2022-12-26T12:04:11.692Z,12.60
2022-12-26T12:40:46.028Z,12.80
2022-12-26T12:43:20.350Z,12.90
2022-12-26T12:46:28.857Z,13.00
2022-12-26T12:49:40.599Z,13.00
2022-12-26T12:52:20.095Z,12.80
2022-12-26T12:55:14.839Z,12.80
2022-12-26T12:57:55.853Z,12.80
2022-12-26T13:00:37.173Z,12.80
2022-12-26T13:03:27.553Z,12.80
2022-12-26T13:06:24.928Z,12.70
2022-12-26T13:09:29.262Z,12.60
2022-12-26T13:12:08.347Z,12.70
2022-12-26T13:15:23.607Z,12.70
2022-12-26T13:18:02.386Z,12.60
2022-12-26T13:20:49.052Z,12.70
2022-12-26T13:23:57.784Z,12.70
2022-12-26T13:29:35.035Z,12.60
2022-12-26T13:32:05.111Z,12.60
2022-12-26T13:34:38.374Z,12.50
2022-12-26T13:37:07.449Z,12.60
2022-12-26T13:39:38.993Z,12.50
2022-12-26T13:42:41.034Z,12.60
2022-12-26T13:45:39.796Z,12.60
2022-12-26T13:48:12.880Z,12.50
2022-12-26T13:51:00.761Z,12.40
2022-12-26T13:53:43.471Z,12.40
2022-12-26T13:56:23.904Z,12.30
2022-12-26T13:59:09.503Z,12.10
2022-12-26T14:02:21.151Z,12.10
2022-12-26T14:05:31.649Z,12.00
2022-12-26T14:08:18.394Z,12.10
2022-12-26T14:11:07.393Z,12.00
2022-12-26T14:14:04.534Z,11.90
2022-12-26T14:16:58.426Z,11.80
2022-12-26T14:19:48.553Z,11.90
2022-12-26T14:22:49.366Z,11.80
2022-12-26T14:25:51.107Z,11.80
2022-12-26T14:28:26.826Z,11.80
2022-12-26T14:31:24.875Z,11.90
2022-12-26T14:34:22.699Z,11.80
2022-12-26T14:37:02.342Z,11.80
2022-12-26T14:40:03.809Z,11.80
2022-12-26T14:43:09.165Z,11.80
2022-12-26T14:45:37.896Z,11.80
2022-12-26T14:48:17.154Z,11.90
2022-12-26T14:50:54.007Z,12.00
2022-12-26T14:53:30.159Z,11.90
2022-12-26T14:56:20.658Z,12.00
2022-12-26T14:58:48.777Z,12.00
2022-12-26T15:01:15.916Z,12.00
2022-12-26T15:04:17.205Z,12.00
2022-12-26T15:07:20.361Z,11.90
2022-12-26T15:09:59.505Z,11.80
2022-12-26T15:12:46.477Z,11.80
2022-12-26T15:15:31.848Z,11.90
2022-12-26T15:18:21.116Z,11.80
2022-12-26T15:21:25.067Z,11.80
2022-12-26T15:24:34.172Z,11.90
2022-12-26T15:27:47.122Z,11.90
2022-12-26T15:30:26.739Z,11.90
2022-12-26T15:33:21.574Z,11.90
2022-12-26T15:36:14.419Z,12.00
2022-12-26T15:39:02.804Z,11.80
2022-12-26T15:41:41.540Z,11.90
2022-12-26T15:44:47.793Z,11.80
2022-12-26T15:47:37.864Z,11.70
2022-12-26T15:50:27.555Z,11.70
2022-12-26T15:53:22.422Z,11.70
2022-12-26T15:56:02.267Z,11.70
2022-12-26T15:58:48.178Z,11.60
2022-12-26T16:01:36.578Z,11.70
2022-12-26T16:04:08.396Z,11.60
2022-12-26T16:06:53.858Z,11.70
2022-12-26T16:09:47.847Z,11.70
2022-12-26T16:15:21.656Z,11.80
2022-12-26T16:17:49.253Z,11.90
2022-12-26T16:20:57.116Z,11.70
2022-12-26T16:23:26.644Z,11.60
2022-12-26T16:26:01.115Z,11.60
2022-12-26T16:28:41.474Z,11.40
2022-12-26T16:31:14.487Z,11.20
2022-12-26T16:33:44.721Z,10.90
2022-12-26T16:36:28.035Z,10.60
2022-12-26T16:39:00.905Z,10.60
2022-12-26T16:41:31.108Z,10.30
2022-12-26T16:44:37.047Z,10.20
2022-12-26T16:47:12.850Z,10.10
2022-12-26T16:49:44.561Z,10.10
2022-12-26T16:52:46.356Z,10.00
2022-12-26T16:56:09.662Z,10.10
2022-12-26T16:58:41.609Z,10.10
2022-12-26T17:01:20.708Z,10.10
2022-12-26T17:04:07.254Z,10.20
2022-12-26T17:07:01.118Z,10.10
2022-12-26T17:09:35.212Z,10.00
2022-12-26T17:12:28.463Z,9.90
2022-12-26T17:15:00.045Z,9.90
2022-12-26T17:17:41.883Z,10.00
2022-12-26T17:20:24.989Z,9.90
2022-12-26T17:27:22.368Z,10.00
2022-12-26T21:30:03.089Z,9.90
2022-12-26T21:35:15.371Z,9.70
2022-12-26T21:40:45.359Z,9.40
2022-12-26T21:51:12.322Z,9.60
2022-12-26T21:53:46.953Z,9.70
2022-12-26T21:56:18.673Z,9.80
2022-12-26T22:04:22.400Z,9.60
2022-12-26T22:17:32.029Z,10.00
2022-12-26T22:46:58.850Z,9.80
2022-12-26T22:52:04.770Z,9.90
2022-12-26T22:57:15.591Z,9.80
2022-12-26T23:19:11.795Z,9.20
2022-12-26T23:21:43.853Z,8.90
2022-12-26T23:24:19.372Z,8.70
2022-12-26T23:51:06.544Z,8.40
2022-12-26T23:53:33.878Z,8.40
2022-12-26T23:58:40.389Z,8.40
